sensor_id;sensor_type;location;lat;lon;timestamp;temperature;humidity
63966;DHT22;50151;52.030;5.350;2024-01-15T00:00:15;1.70;99.90
63966;DHT22;50151;52.030;5.350;2024-01-15T00:02:43;1.70;99.90
63966;DHT22;50151;52.030;5.350;2024-01-15T00:05:09;1.70;99.90
63966;DHT22;50151;52.030;5.350;2024-01-15T00:07:36;1.70;99.90
63966;DHT22;50151;52.030;5.350;2024-01-15T00:10:03;1.70;99.90
63966;DHT22;50151;52.030;5.350;2024-01-15T00:12:30;1.60;99.90
63966;DHT22;50151;52.030;5.350;2024-01-15T00:14:57;1.60;99.90
63966;DHT22;50151;52.030;5.350;2024-01-15T00:17:23;1.60;99.90
63966;DHT22;50151;52.030;5.350;2024-01-15T00:19:50;1.50;99.90
63966;DHT22;50151;52.030;5.350;2024-01-15T00:22:17;1.50;99.90
63966;DHT22;50151;52.030;5.350;2024-01-15T00:24:44;1.50;99.90
63966;DHT22;50151;52.030;5.350;2024-01-15T00:27:11;1.40;99.90
63966;DHT22;50151;52.030;5.350;2024-01-15T00:29:37;1.40;99.90
63966;DHT22;50151;52.030;5.350;2024-01-15T00:32:04;1.40;99.90
63966;DHT22;50151;52.030;5.350;2024-01-15T00:34:31;1.40;99.90
63966;DHT22;50151;52.030;5.350;2024-01-15T00:36:58;1.40;99.90
63966;DHT22;50151;52.030;5.350;2024-01-15T00:39:25;1.40;99.90
63966;DHT22;50151;52.030;5.350;2024-01-15T00:41:53;1.40;99.90
63966;DHT22;50151;52.030;5.350;2024-01-15T00:44:19;1.40;99.90
63966;DHT22;50151;52.030;5.350;2024-01-15T00:46:46;1.30;99.90
63966;DHT22;50151;52.030;5.350;2024-01-15T00:49:13;1.40;99.90
63966;DHT22;50151;52.030;5.350;2024-01-15T00:51:41;1.30;99.90
63966;DHT22;50151;52.030;5.350;2024-01-15T00:54:08;1.30;99.90
63966;DHT22;50151;52.030;5.350;2024-01-15T00:56:35;1.30;99.90
63966;DHT22;50151;52.030;5.350;2024-01-15T00:59:02;1.30;99.90
63966;DHT22;50151;52.030;5.350;2024-01-15T01:01:29;1.30;99.90
63966;DHT22;50151;52.030;5.350;2024-01-15T01:03:56;1.20;99.90
63966;DHT22;50151;52.030;5.350;2024-01-15T01:06:23;1.20;99.90
63966;DHT22;50151;52.030;5.350;2024-01-15T01:08:50;1.20;99.90
63966;DHT22;50151;52.030;5.350;2024-01-15T01:11:17;1.10;99.90
63966;DHT22;50151;52.030;5.350;2024-01-15T01:13:43;1.10;99.90
63966;DHT22;50151;52.030;5.350;2024-01-15T01:16:10;1.10;99.90
63966;DHT22;50151;52.030;5.350;2024-01-15T01:18:37;1.10;99.90
63966;DHT22;50151;52.030;5.350;2024-01-15T01:21:04;1.10;99.90
63966;DHT22;50151;52.030;5.350;2024-01-15T01:23:31;1.10;99.90
63966;DHT22;50151;52.030;5.350;2024-01-15T01:25:57;1.10;99.90
63966;DHT22;50151;52.030;5.350;2024-01-15T01:28:24;1.00;99.90
63966;DHT22;50151;52.030;5.350;2024-01-15T01:30:51;1.00;99.90
63966;DHT22;50151;52.030;5.350;2024-01-15T01:33:18;1.00;99.90
63966;DHT22;50151;52.030;5.350;2024-01-15T01:35:45;1.00;99.90
63966;DHT22;50151;52.030;5.350;2024-01-15T01:38:13;1.00;99.90
63966;DHT22;50151;52.030;5.350;2024-01-15T01:40:39;1.00;99.90
63966;DHT22;50151;52.030;5.350;2024-01-15T01:43:06;1.00;99.90
63966;DHT22;50151;52.030;5.350;2024-01-15T01:45:35;1.00;99.90
63966;DHT22;50151;52.030;5.350;2024-01-15T01:48:02;1.00;99.90
63966;DHT22;50151;52.030;5.350;2024-01-15T01:50:31;1.00;99.90
63966;DHT22;50151;52.030;5.350;2024-01-15T01:52:59;1.00;99.90
63966;DHT22;50151;52.030;5.350;2024-01-15T01:55:27;1.00;99.90
63966;DHT22;50151;52.030;5.350;2024-01-15T01:57:55;1.00;99.90
63966;DHT22;50151;52.030;5.350;2024-01-15T02:00:23;0.90;99.90
63966;DHT22;50151;52.030;5.350;2024-01-15T02:02:50;0.90;99.90
63966;DHT22;50151;52.030;5.350;2024-01-15T02:05:18;0.90;99.90
63966;DHT22;50151;52.030;5.350;2024-01-15T02:07:47;0.90;99.90
63966;DHT22;50151;52.030;5.350;2024-01-15T02:10:14;0.80;99.90
63966;DHT22;50151;52.030;5.350;2024-01-15T02:12:42;0.90;99.90
63966;DHT22;50151;52.030;5.350;2024-01-15T02:15:10;0.90;99.90
63966;DHT22;50151;52.030;5.350;2024-01-15T02:18:02;0.90;99.90
63966;DHT22;50151;52.030;5.350;2024-01-15T02:20:30;0.90;99.90
63966;DHT22;50151;52.030;5.350;2024-01-15T02:23:14;0.90;99.90
63966;DHT22;50151;52.030;5.350;2024-01-15T02:25:43;1.00;99.90
63966;DHT22;50151;52.030;5.350;2024-01-15T02:28:14;0.90;99.90
63966;DHT22;50151;52.030;5.350;2024-01-15T02:30:42;0.90;99.90
63966;DHT22;50151;52.030;5.350;2024-01-15T02:33:10;1.00;99.90
63966;DHT22;50151;52.030;5.350;2024-01-15T02:35:38;0.90;99.90
63966;DHT22;50151;52.030;5.350;2024-01-15T02:38:05;1.00;99.90
63966;DHT22;50151;52.030;5.350;2024-01-15T02:40:34;1.00;99.90
63966;DHT22;50151;52.030;5.350;2024-01-15T02:43:01;1.00;99.90
63966;DHT22;50151;52.030;5.350;2024-01-15T02:45:28;1.00;99.90
63966;DHT22;50151;52.030;5.350;2024-01-15T02:47:55;1.10;99.90
63966;DHT22;50151;52.030;5.350;2024-01-15T02:50:22;1.10;99.90
63966;DHT22;50151;52.030;5.350;2024-01-15T02:52:48;1.10;99.90
63966;DHT22;50151;52.030;5.350;2024-01-15T02:55:15;1.10;99.90
63966;DHT22;50151;52.030;5.350;2024-01-15T02:57:42;1.10;99.90
63966;DHT22;50151;52.030;5.350;2024-01-15T03:00:09;1.10;99.90
63966;DHT22;50151;52.030;5.350;2024-01-15T03:02:38;1.10;99.90
63966;DHT22;50151;52.030;5.350;2024-01-15T03:05:11;1.20;99.90
63966;DHT22;50151;52.030;5.350;2024-01-15T03:07:38;1.20;99.90
63966;DHT22;50151;52.030;5.350;2024-01-15T03:10:06;1.20;99.90
63966;DHT22;50151;52.030;5.350;2024-01-15T03:12:33;1.20;99.90
63966;DHT22;50151;52.030;5.350;2024-01-15T03:15:00;1.20;99.90
63966;DHT22;50151;52.030;5.350;2024-01-15T03:17:26;1.20;99.90
63966;DHT22;50151;52.030;5.350;2024-01-15T03:19:54;1.20;99.90
63966;DHT22;50151;52.030;5.350;2024-01-15T03:22:20;1.20;99.90
63966;DHT22;50151;52.030;5.350;2024-01-15T03:24:47;1.20;99.90
63966;DHT22;50151;52.030;5.350;2024-01-15T03:27:14;1.20;99.90
63966;DHT22;50151;52.030;5.350;2024-01-15T03:29:41;1.20;99.90
63966;DHT22;50151;52.030;5.350;2024-01-15T03:32:08;1.20;99.90
63966;DHT22;50151;52.030;5.350;2024-01-15T03:34:35;1.20;99.90
63966;DHT22;50151;52.030;5.350;2024-01-15T03:37:02;1.20;99.90
63966;DHT22;50151;52.030;5.350;2024-01-15T03:39:28;1.10;99.90
63966;DHT22;50151;52.030;5.350;2024-01-15T03:41:55;1.20;99.90
63966;DHT22;50151;52.030;5.350;2024-01-15T03:44:22;1.20;99.90
63966;DHT22;50151;52.030;5.350;2024-01-15T03:46:49;1.20;99.90
63966;DHT22;50151;52.030;5.350;2024-01-15T03:49:15;1.20;99.90
63966;DHT22;50151;52.030;5.350;2024-01-15T03:51:42;1.20;99.90
63966;DHT22;50151;52.030;5.350;2024-01-15T03:54:09;1.20;99.90
63966;DHT22;50151;52.030;5.350;2024-01-15T03:56:36;1.30;99.90
63966;DHT22;50151;52.030;5.350;2024-01-15T03:59:03;1.30;99.90
63966;DHT22;50151;52.030;5.350;2024-01-15T04:01:29;1.30;99.90
63966;DHT22;50151;52.030;5.350;2024-01-15T04:03:56;1.30;99.90
63966;DHT22;50151;52.030;5.350;2024-01-15T04:06:23;1.30;99.90
63966;DHT22;50151;52.030;5.350;2024-01-15T04:08:50;1.30;99.90
63966;DHT22;50151;52.030;5.350;2024-01-15T04:11:17;1.30;99.90
63966;DHT22;50151;52.030;5.350;2024-01-15T04:13:43;1.30;99.90
63966;DHT22;50151;52.030;5.350;2024-01-15T04:16:10;1.30;99.90
63966;DHT22;50151;52.030;5.350;2024-01-15T04:18:37;1.30;99.90
63966;DHT22;50151;52.030;5.350;2024-01-15T04:21:05;1.20;99.90
63966;DHT22;50151;52.030;5.350;2024-01-15T04:23:33;1.20;99.90
63966;DHT22;50151;52.030;5.350;2024-01-15T04:25:59;1.20;99.90
63966;DHT22;50151;52.030;5.350;2024-01-15T04:28:26;1.20;99.90
63966;DHT22;50151;52.030;5.350;2024-01-15T04:30:53;1.20;99.90
63966;DHT22;50151;52.030;5.350;2024-01-15T04:33:20;1.20;99.90
63966;DHT22;50151;52.030;5.350;2024-01-15T04:35:46;1.20;99.90
63966;DHT22;50151;52.030;5.350;2024-01-15T04:38:13;1.10;99.90
63966;DHT22;50151;52.030;5.350;2024-01-15T04:40:40;1.10;99.90
63966;DHT22;50151;52.030;5.350;2024-01-15T04:43:07;1.10;99.90
63966;DHT22;50151;52.030;5.350;2024-01-15T04:45:34;1.00;99.90
63966;DHT22;50151;52.030;5.350;2024-01-15T04:48:01;1.00;99.90
63966;DHT22;50151;52.030;5.350;2024-01-15T04:50:28;1.00;99.90
63966;DHT22;50151;52.030;5.350;2024-01-15T04:52:55;1.00;99.90
63966;DHT22;50151;52.030;5.350;2024-01-15T04:55:22;1.00;99.90
63966;DHT22;50151;52.030;5.350;2024-01-15T04:57:48;1.00;99.90
63966;DHT22;50151;52.030;5.350;2024-01-15T05:00:15;1.00;99.90
63966;DHT22;50151;52.030;5.350;2024-01-15T05:02:42;1.00;99.90
63966;DHT22;50151;52.030;5.350;2024-01-15T05:05:09;1.00;99.90
63966;DHT22;50151;52.030;5.350;2024-01-15T05:07:36;1.10;99.90
63966;DHT22;50151;52.030;5.350;2024-01-15T05:10:03;1.10;99.90
63966;DHT22;50151;52.030;5.350;2024-01-15T05:12:30;1.10;99.90
63966;DHT22;50151;52.030;5.350;2024-01-15T05:14:57;1.10;99.90
63966;DHT22;50151;52.030;5.350;2024-01-15T05:17:24;1.10;99.90
63966;DHT22;50151;52.030;5.350;2024-01-15T05:19:51;1.10;99.90
63966;DHT22;50151;52.030;5.350;2024-01-15T05:22:17;1.10;99.90
63966;DHT22;50151;52.030;5.350;2024-01-15T05:24:44;1.10;99.90
63966;DHT22;50151;52.030;5.350;2024-01-15T05:27:11;1.10;99.90
63966;DHT22;50151;52.030;5.350;2024-01-15T05:29:38;1.10;99.90
63966;DHT22;50151;52.030;5.350;2024-01-15T05:32:04;1.10;99.90
63966;DHT22;50151;52.030;5.350;2024-01-15T05:34:31;1.20;99.90
63966;DHT22;50151;52.030;5.350;2024-01-15T05:36:58;1.20;99.90
63966;DHT22;50151;52.030;5.350;2024-01-15T05:39:25;1.10;99.90
63966;DHT22;50151;52.030;5.350;2024-01-15T05:41:52;1.10;99.90
63966;DHT22;50151;52.030;5.350;2024-01-15T05:44:19;1.10;99.90
63966;DHT22;50151;52.030;5.350;2024-01-15T05:46:45;1.10;99.90
63966;DHT22;50151;52.030;5.350;2024-01-15T05:49:12;1.10;99.90
63966;DHT22;50151;52.030;5.350;2024-01-15T05:51:39;1.10;99.90
63966;DHT22;50151;52.030;5.350;2024-01-15T05:54:06;1.20;99.90
63966;DHT22;50151;52.030;5.350;2024-01-15T05:56:33;1.20;99.90
63966;DHT22;50151;52.030;5.350;2024-01-15T05:58:59;1.10;99.90
63966;DHT22;50151;52.030;5.350;2024-01-15T06:01:26;1.10;99.90
63966;DHT22;50151;52.030;5.350;2024-01-15T06:03:53;1.20;99.90
63966;DHT22;50151;52.030;5.350;2024-01-15T06:06:20;1.20;99.90
63966;DHT22;50151;52.030;5.350;2024-01-15T06:08:47;1.20;99.90
63966;DHT22;50151;52.030;5.350;2024-01-15T06:11:14;1.20;99.90
63966;DHT22;50151;52.030;5.350;2024-01-15T06:13:41;1.20;99.90
63966;DHT22;50151;52.030;5.350;2024-01-15T06:16:15;1.20;99.90
63966;DHT22;50151;52.030;5.350;2024-01-15T06:18:46;1.20;99.90
63966;DHT22;50151;52.030;5.350;2024-01-15T06:21:14;1.20;99.90
63966;DHT22;50151;52.030;5.350;2024-01-15T06:23:41;1.00;99.90
63966;DHT22;50151;52.030;5.350;2024-01-15T06:26:09;1.00;99.90
63966;DHT22;50151;52.030;5.350;2024-01-15T06:28:38;1.00;99.90
63966;DHT22;50151;52.030;5.350;2024-01-15T06:31:06;1.00;99.90
63966;DHT22;50151;52.030;5.350;2024-01-15T06:33:33;1.00;99.90
63966;DHT22;50151;52.030;5.350;2024-01-15T06:36:00;0.90;99.90
63966;DHT22;50151;52.030;5.350;2024-01-15T06:38:27;0.90;99.90
63966;DHT22;50151;52.030;5.350;2024-01-15T06:40:54;0.90;99.90
63966;DHT22;50151;52.030;5.350;2024-01-15T06:43:21;0.90;99.90
63966;DHT22;50151;52.030;5.350;2024-01-15T06:46:01;0.90;99.90
63966;DHT22;50151;52.030;5.350;2024-01-15T06:48:33;0.90;99.90
63966;DHT22;50151;52.030;5.350;2024-01-15T06:51:00;1.00;99.90
63966;DHT22;50151;52.030;5.350;2024-01-15T06:53:35;0.90;99.90
63966;DHT22;50151;52.030;5.350;2024-01-15T06:56:02;1.00;99.90
63966;DHT22;50151;52.030;5.350;2024-01-15T06:58:31;1.00;99.90
63966;DHT22;50151;52.030;5.350;2024-01-15T07:00:58;1.00;99.90
63966;DHT22;50151;52.030;5.350;2024-01-15T07:03:25;1.00;99.90
63966;DHT22;50151;52.030;5.350;2024-01-15T07:05:52;1.00;99.90
63966;DHT22;50151;52.030;5.350;2024-01-15T07:08:18;1.00;99.90
63966;DHT22;50151;52.030;5.350;2024-01-15T07:10:45;1.00;99.90
63966;DHT22;50151;52.030;5.350;2024-01-15T07:13:12;1.00;99.90
63966;DHT22;50151;52.030;5.350;2024-01-15T07:15:39;1.00;99.90
63966;DHT22;50151;52.030;5.350;2024-01-15T07:18:06;1.00;99.90
63966;DHT22;50151;52.030;5.350;2024-01-15T07:20:38;1.00;99.90
63966;DHT22;50151;52.030;5.350;2024-01-15T07:23:05;1.00;99.90
63966;DHT22;50151;52.030;5.350;2024-01-15T07:25:33;1.00;99.90
63966;DHT22;50151;52.030;5.350;2024-01-15T07:28:00;0.90;99.90
63966;DHT22;50151;52.030;5.350;2024-01-15T07:30:27;0.90;99.90
63966;DHT22;50151;52.030;5.350;2024-01-15T07:32:54;0.90;99.90
63966;DHT22;50151;52.030;5.350;2024-01-15T07:35:21;0.90;99.90
63966;DHT22;50151;52.030;5.350;2024-01-15T07:37:48;0.90;99.90
63966;DHT22;50151;52.030;5.350;2024-01-15T07:40:15;0.90;99.90
63966;DHT22;50151;52.030;5.350;2024-01-15T07:42:42;0.90;99.90
63966;DHT22;50151;52.030;5.350;2024-01-15T07:45:10;0.90;99.90
63966;DHT22;50151;52.030;5.350;2024-01-15T07:47:37;0.90;99.90
63966;DHT22;50151;52.030;5.350;2024-01-15T07:50:04;0.90;99.90
63966;DHT22;50151;52.030;5.350;2024-01-15T07:52:32;0.90;99.90
63966;DHT22;50151;52.030;5.350;2024-01-15T07:54:59;0.90;99.90
63966;DHT22;50151;52.030;5.350;2024-01-15T07:57:31;0.90;99.90
63966;DHT22;50151;52.030;5.350;2024-01-15T08:00:06;0.90;99.90
63966;DHT22;50151;52.030;5.350;2024-01-15T08:02:34;0.90;99.90
63966;DHT22;50151;52.030;5.350;2024-01-15T08:05:07;0.90;99.90
63966;DHT22;50151;52.030;5.350;2024-01-15T08:07:49;1.00;99.90
63966;DHT22;50151;52.030;5.350;2024-01-15T08:10:22;1.00;99.90
63966;DHT22;50151;52.030;5.350;2024-01-15T08:12:49;1.00;99.90
63966;DHT22;50151;52.030;5.350;2024-01-15T08:15:17;1.00;99.90
63966;DHT22;50151;52.030;5.350;2024-01-15T08:17:44;1.00;99.90
63966;DHT22;50151;52.030;5.350;2024-01-15T08:20:11;1.10;99.90
63966;DHT22;50151;52.030;5.350;2024-01-15T08:22:38;1.00;99.90
63966;DHT22;50151;52.030;5.350;2024-01-15T08:25:06;1.10;99.90
63966;DHT22;50151;52.030;5.350;2024-01-15T08:27:33;1.10;99.90
63966;DHT22;50151;52.030;5.350;2024-01-15T08:30:00;1.00;99.90
63966;DHT22;50151;52.030;5.350;2024-01-15T08:32:27;1.00;99.90
63966;DHT22;50151;52.030;5.350;2024-01-15T08:34:54;1.10;99.90
63966;DHT22;50151;52.030;5.350;2024-01-15T08:37:24;1.00;99.90
63966;DHT22;50151;52.030;5.350;2024-01-15T08:39:51;1.00;99.90
63966;DHT22;50151;52.030;5.350;2024-01-15T08:42:18;1.00;99.90
63966;DHT22;50151;52.030;5.350;2024-01-15T08:44:45;1.10;99.90
63966;DHT22;50151;52.030;5.350;2024-01-15T08:47:12;1.10;99.90
63966;DHT22;50151;52.030;5.350;2024-01-15T08:49:38;1.10;99.90
63966;DHT22;50151;52.030;5.350;2024-01-15T08:52:07;1.10;99.90
63966;DHT22;50151;52.030;5.350;2024-01-15T08:54:34;1.10;99.90
63966;DHT22;50151;52.030;5.350;2024-01-15T08:57:02;1.10;99.90
63966;DHT22;50151;52.030;5.350;2024-01-15T08:59:29;1.00;99.90
63966;DHT22;50151;52.030;5.350;2024-01-15T09:01:56;1.10;99.90
63966;DHT22;50151;52.030;5.350;2024-01-15T09:04:24;1.20;99.90
63966;DHT22;50151;52.030;5.350;2024-01-15T09:06:51;1.10;99.90
63966;DHT22;50151;52.030;5.350;2024-01-15T09:09:18;1.20;99.90
63966;DHT22;50151;52.030;5.350;2024-01-15T09:11:45;1.20;99.90
63966;DHT22;50151;52.030;5.350;2024-01-15T09:14:12;1.20;99.90
63966;DHT22;50151;52.030;5.350;2024-01-15T09:16:42;1.30;99.90
63966;DHT22;50151;52.030;5.350;2024-01-15T09:19:09;1.30;99.90
63966;DHT22;50151;52.030;5.350;2024-01-15T09:21:38;1.20;99.90
63966;DHT22;50151;52.030;5.350;2024-01-15T09:24:05;1.20;99.90
63966;DHT22;50151;52.030;5.350;2024-01-15T09:26:32;1.20;99.90
63966;DHT22;50151;52.030;5.350;2024-01-15T09:28:59;1.20;99.90
63966;DHT22;50151;52.030;5.350;2024-01-15T09:31:26;1.20;99.90
63966;DHT22;50151;52.030;5.350;2024-01-15T09:33:53;1.30;99.90
63966;DHT22;50151;52.030;5.350;2024-01-15T09:36:23;1.30;99.90
63966;DHT22;50151;52.030;5.350;2024-01-15T09:38:49;1.50;99.90
63966;DHT22;50151;52.030;5.350;2024-01-15T09:41:17;1.50;99.90
63966;DHT22;50151;52.030;5.350;2024-01-15T09:43:44;1.50;99.90
63966;DHT22;50151;52.030;5.350;2024-01-15T09:46:11;1.50;99.90
63966;DHT22;50151;52.030;5.350;2024-01-15T09:48:38;1.40;99.90
63966;DHT22;50151;52.030;5.350;2024-01-15T09:51:06;1.40;99.90
63966;DHT22;50151;52.030;5.350;2024-01-15T09:53:35;1.30;99.90
63966;DHT22;50151;52.030;5.350;2024-01-15T09:56:04;1.40;99.90
63966;DHT22;50151;52.030;5.350;2024-01-15T09:58:32;1.30;99.90
63966;DHT22;50151;52.030;5.350;2024-01-15T10:01:00;1.30;99.90
63966;DHT22;50151;52.030;5.350;2024-01-15T10:03:33;1.30;99.90
63966;DHT22;50151;52.030;5.350;2024-01-15T10:06:00;1.40;99.90
63966;DHT22;50151;52.030;5.350;2024-01-15T10:08:28;1.40;99.90
63966;DHT22;50151;52.030;5.350;2024-01-15T10:10:55;1.50;99.90
63966;DHT22;50151;52.030;5.350;2024-01-15T10:13:22;1.60;99.90
63966;DHT22;50151;52.030;5.350;2024-01-15T10:15:49;1.70;99.90
63966;DHT22;50151;52.030;5.350;2024-01-15T10:18:16;1.70;99.90
63966;DHT22;50151;52.030;5.350;2024-01-15T10:20:43;1.80;99.90
63966;DHT22;50151;52.030;5.350;2024-01-15T10:23:09;1.90;99.90
63966;DHT22;50151;52.030;5.350;2024-01-15T10:25:36;2.10;99.90
63966;DHT22;50151;52.030;5.350;2024-01-15T10:28:04;2.20;99.90
63966;DHT22;50151;52.030;5.350;2024-01-15T10:30:34;2.50;99.90
63966;DHT22;50151;52.030;5.350;2024-01-15T10:33:03;2.40;99.90
63966;DHT22;50151;52.030;5.350;2024-01-15T10:35:31;2.20;99.90
63966;DHT22;50151;52.030;5.350;2024-01-15T10:38:02;2.20;99.90
63966;DHT22;50151;52.030;5.350;2024-01-15T10:40:29;2.30;99.90
63966;DHT22;50151;52.030;5.350;2024-01-15T10:42:56;2.40;99.90
63966;DHT22;50151;52.030;5.350;2024-01-15T10:45:24;2.50;99.90
63966;DHT22;50151;52.030;5.350;2024-01-15T10:47:51;2.50;99.90
63966;DHT22;50151;52.030;5.350;2024-01-15T10:50:20;2.50;99.90
63966;DHT22;50151;52.030;5.350;2024-01-15T10:52:47;2.30;99.90
63966;DHT22;50151;52.030;5.350;2024-01-15T10:55:14;2.20;99.90
63966;DHT22;50151;52.030;5.350;2024-01-15T10:57:47;2.20;99.90
63966;DHT22;50151;52.030;5.350;2024-01-15T11:00:15;2.30;99.90
63966;DHT22;50151;52.030;5.350;2024-01-15T11:02:42;2.40;99.90
63966;DHT22;50151;52.030;5.350;2024-01-15T11:05:09;2.40;99.90
63966;DHT22;50151;52.030;5.350;2024-01-15T11:07:39;2.40;99.90
63966;DHT22;50151;52.030;5.350;2024-01-15T11:10:08;2.50;99.90
63966;DHT22;50151;52.030;5.350;2024-01-15T11:12:41;2.50;99.90
63966;DHT22;50151;52.030;5.350;2024-01-15T11:15:08;2.40;99.90
63966;DHT22;50151;52.030;5.350;2024-01-15T11:17:58;2.40;99.90
63966;DHT22;50151;52.030;5.350;2024-01-15T11:20:25;2.40;99.90
63966;DHT22;50151;52.030;5.350;2024-01-15T11:22:52;2.50;99.90
63966;DHT22;50151;52.030;5.350;2024-01-15T11:25:19;2.40;99.90
63966;DHT22;50151;52.030;5.350;2024-01-15T11:27:48;2.40;99.90
63966;DHT22;50151;52.030;5.350;2024-01-15T11:30:19;2.30;99.90
63966;DHT22;50151;52.030;5.350;2024-01-15T11:32:49;2.40;99.90
63966;DHT22;50151;52.030;5.350;2024-01-15T11:35:16;2.30;99.90
63966;DHT22;50151;52.030;5.350;2024-01-15T11:40:20;2.40;99.90
63966;DHT22;50151;52.030;5.350;2024-01-15T11:42:48;2.60;99.90
63966;DHT22;50151;52.030;5.350;2024-01-15T11:45:18;2.60;99.90
63966;DHT22;50151;52.030;5.350;2024-01-15T11:48:11;2.50;99.90
63966;DHT22;50151;52.030;5.350;2024-01-15T11:53:37;2.50;99.90
63966;DHT22;50151;52.030;5.350;2024-01-15T11:56:15;2.50;99.90
63966;DHT22;50151;52.030;5.350;2024-01-15T11:58:43;2.40;99.90
63966;DHT22;50151;52.030;5.350;2024-01-15T12:01:11;2.40;99.90
63966;DHT22;50151;52.030;5.350;2024-01-15T12:03:38;2.40;99.90
63966;DHT22;50151;52.030;5.350;2024-01-15T12:06:09;2.30;99.90
63966;DHT22;50151;52.030;5.350;2024-01-15T12:08:36;2.40;99.90
63966;DHT22;50151;52.030;5.350;2024-01-15T12:11:07;2.30;99.90
63966;DHT22;50151;52.030;5.350;2024-01-15T12:13:37;2.30;99.90
63966;DHT22;50151;52.030;5.350;2024-01-15T12:16:04;2.30;99.90
63966;DHT22;50151;52.030;5.350;2024-01-15T12:18:31;2.20;99.90
63966;DHT22;50151;52.030;5.350;2024-01-15T12:20:58;2.40;99.90
63966;DHT22;50151;52.030;5.350;2024-01-15T12:23:25;2.70;99.90
63966;DHT22;50151;52.030;5.350;2024-01-15T12:25:54;2.80;99.90
63966;DHT22;50151;52.030;5.350;2024-01-15T12:28:20;2.90;99.90
63966;DHT22;50151;52.030;5.350;2024-01-15T12:30:47;3.00;99.90
63966;DHT22;50151;52.030;5.350;2024-01-15T12:33:18;3.20;99.90
63966;DHT22;50151;52.030;5.350;2024-01-15T12:35:46;3.20;99.90
63966;DHT22;50151;52.030;5.350;2024-01-15T12:38:13;2.90;99.90
63966;DHT22;50151;52.030;5.350;2024-01-15T12:40:40;2.70;99.90
63966;DHT22;50151;52.030;5.350;2024-01-15T12:43:12;2.70;99.90
63966;DHT22;50151;52.030;5.350;2024-01-15T12:45:40;2.80;99.90
63966;DHT22;50151;52.030;5.350;2024-01-15T12:48:07;2.80;99.90
63966;DHT22;50151;52.030;5.350;2024-01-15T12:50:34;2.90;99.90
63966;DHT22;50151;52.030;5.350;2024-01-15T12:53:02;3.20;99.90
63966;DHT22;50151;52.030;5.350;2024-01-15T12:55:29;3.40;99.90
63966;DHT22;50151;52.030;5.350;2024-01-15T12:57:56;3.30;99.90
63966;DHT22;50151;52.030;5.350;2024-01-15T13:00:23;3.20;99.90
63966;DHT22;50151;52.030;5.350;2024-01-15T13:02:52;3.00;99.90
63966;DHT22;50151;52.030;5.350;2024-01-15T13:05:20;2.70;99.90
63966;DHT22;50151;52.030;5.350;2024-01-15T13:07:47;2.50;99.90
63966;DHT22;50151;52.030;5.350;2024-01-15T13:10:14;2.40;99.90
63966;DHT22;50151;52.030;5.350;2024-01-15T13:12:41;2.40;99.90
63966;DHT22;50151;52.030;5.350;2024-01-15T13:15:09;2.30;99.90
63966;DHT22;50151;52.030;5.350;2024-01-15T13:17:41;2.40;99.90
63966;DHT22;50151;52.030;5.350;2024-01-15T13:20:08;2.30;99.90
63966;DHT22;50151;52.030;5.350;2024-01-15T13:22:36;2.30;99.90
63966;DHT22;50151;52.030;5.350;2024-01-15T13:25:06;2.30;99.90
63966;DHT22;50151;52.030;5.350;2024-01-15T13:27:34;3.00;99.90
63966;DHT22;50151;52.030;5.350;2024-01-15T13:30:06;3.50;99.90
63966;DHT22;50151;52.030;5.350;2024-01-15T13:32:35;3.70;99.90
63966;DHT22;50151;52.030;5.350;2024-01-15T13:35:02;3.90;99.90
63966;DHT22;50151;52.030;5.350;2024-01-15T13:37:32;4.10;99.90
63966;DHT22;50151;52.030;5.350;2024-01-15T13:39:59;4.00;99.90
63966;DHT22;50151;52.030;5.350;2024-01-15T13:42:26;3.90;99.90
63966;DHT22;50151;52.030;5.350;2024-01-15T13:44:54;4.00;99.90
63966;DHT22;50151;52.030;5.350;2024-01-15T13:47:21;3.50;99.90
63966;DHT22;50151;52.030;5.350;2024-01-15T13:49:47;3.50;99.90
63966;DHT22;50151;52.030;5.350;2024-01-15T13:52:14;3.30;99.90
63966;DHT22;50151;52.030;5.350;2024-01-15T13:54:41;3.30;99.90
63966;DHT22;50151;52.030;5.350;2024-01-15T13:57:19;3.30;99.90
63966;DHT22;50151;52.030;5.350;2024-01-15T13:59:46;3.20;99.90
63966;DHT22;50151;52.030;5.350;2024-01-15T14:02:14;3.10;99.90
63966;DHT22;50151;52.030;5.350;2024-01-15T14:04:47;3.00;99.90
63966;DHT22;50151;52.030;5.350;2024-01-15T14:07:13;2.90;99.90
63966;DHT22;50151;52.030;5.350;2024-01-15T14:09:40;3.00;99.90
63966;DHT22;50151;52.030;5.350;2024-01-15T14:12:09;3.10;99.90
63966;DHT22;50151;52.030;5.350;2024-01-15T14:14:44;3.30;99.90
63966;DHT22;50151;52.030;5.350;2024-01-15T14:17:11;3.70;99.90
63966;DHT22;50151;52.030;5.350;2024-01-15T14:19:41;4.20;99.90
63966;DHT22;50151;52.030;5.350;2024-01-15T14:22:29;4.50;99.90
63966;DHT22;50151;52.030;5.350;2024-01-15T14:24:59;4.00;99.90
63966;DHT22;50151;52.030;5.350;2024-01-15T14:27:26;3.80;99.90
63966;DHT22;50151;52.030;5.350;2024-01-15T14:29:56;3.50;99.90
63966;DHT22;50151;52.030;5.350;2024-01-15T14:32:24;3.60;99.90
63966;DHT22;50151;52.030;5.350;2024-01-15T14:34:51;3.40;99.90
63966;DHT22;50151;52.030;5.350;2024-01-15T14:37:18;3.40;99.90
63966;DHT22;50151;52.030;5.350;2024-01-15T14:39:45;3.20;99.90
63966;DHT22;50151;52.030;5.350;2024-01-15T14:42:12;3.20;99.90
63966;DHT22;50151;52.030;5.350;2024-01-15T14:44:39;3.20;99.90
63966;DHT22;50151;52.030;5.350;2024-01-15T14:47:07;3.30;99.90
63966;DHT22;50151;52.030;5.350;2024-01-15T14:49:34;3.50;99.90
63966;DHT22;50151;52.030;5.350;2024-01-15T14:52:02;3.80;99.90
63966;DHT22;50151;52.030;5.350;2024-01-15T14:54:29;4.00;99.90
63966;DHT22;50151;52.030;5.350;2024-01-15T14:56:56;3.60;99.90
63966;DHT22;50151;52.030;5.350;2024-01-15T14:59:23;3.40;99.90
63966;DHT22;50151;52.030;5.350;2024-01-15T15:01:50;3.30;99.90
63966;DHT22;50151;52.030;5.350;2024-01-15T15:04:17;3.00;99.90
63966;DHT22;50151;52.030;5.350;2024-01-15T15:06:48;3.00;99.90
63966;DHT22;50151;52.030;5.350;2024-01-15T15:09:15;3.10;99.90
63966;DHT22;50151;52.030;5.350;2024-01-15T15:11:42;2.90;99.90
63966;DHT22;50151;52.030;5.350;2024-01-15T15:14:09;2.90;99.90
63966;DHT22;50151;52.030;5.350;2024-01-15T15:16:35;2.90;99.90
63966;DHT22;50151;52.030;5.350;2024-01-15T15:19:02;2.90;99.90
63966;DHT22;50151;52.030;5.350;2024-01-15T15:21:29;2.90;99.90
63966;DHT22;50151;52.030;5.350;2024-01-15T15:23:56;2.90;99.90
63966;DHT22;50151;52.030;5.350;2024-01-15T15:26:23;2.90;99.90
63966;DHT22;50151;52.030;5.350;2024-01-15T15:28:50;2.90;99.90
63966;DHT22;50151;52.030;5.350;2024-01-15T15:31:16;2.80;99.90
63966;DHT22;50151;52.030;5.350;2024-01-15T15:33:44;2.80;99.90
63966;DHT22;50151;52.030;5.350;2024-01-15T15:36:12;2.70;99.90
63966;DHT22;50151;52.030;5.350;2024-01-15T15:38:38;2.70;99.90
63966;DHT22;50151;52.030;5.350;2024-01-15T15:41:05;2.70;99.90
63966;DHT22;50151;52.030;5.350;2024-01-15T15:43:32;2.60;99.90
63966;DHT22;50151;52.030;5.350;2024-01-15T15:45:59;2.70;99.90
63966;DHT22;50151;52.030;5.350;2024-01-15T15:48:27;2.70;99.90
63966;DHT22;50151;52.030;5.350;2024-01-15T15:50:55;2.60;99.90
63966;DHT22;50151;52.030;5.350;2024-01-15T15:53:26;2.60;99.90